Impacts METAR Board
IDs:

KERV - Kerrville Muni, TX, US

Updated at: 0800 UTC 26 May 2019
Potential Impact None Slight Moderate High
Time 25/20Z 25/21Z 25/22Z 25/23Z 26/00Z 26/01Z 26/02Z 26/03Z 26/04Z 26/05Z 26/06Z 26/07Z 26/08Z
Temp85 84 89 87 84 82 79 76 76 74 73 72 72
Dewpt69 68 69 67 67 67 68 68 69 68 67 66 67
Altim30.02 30.00 29.98 29.96 29.97 29.97 29.99 30.01 30.02 30.04 30.04 30.02 30.02
VIS10 10 10 10 10 10 10 10 10 10 10 10 10
CIG-- -- -- -- -- -- -- -- -- 22 20 18 16
CoverSCTSCTSCTCLRCLRSCTSCTSCTSCTBKNOVCOVCOVC
FltCatVFRVFRVFRVFRVFRVFRVFRVFRVFRMVFRMVFRMVFRMVFR
WX--------------------------
WDir170160150140140140130150140150150150150
WSpd15 13 13 12 13 11 7 12 16 15 12 14 11
WGst-- 19 17 21 18 -- -- 16 22 -- 19 18 18
Raw hourly METARs
KERV 251955Z AUTO 17015KT 10SM SCT039 SCT047 SCT070 30/21 A3002 RMK AO2 T02970206
KERV 252055Z AUTO 16013G19KT 10SM SCT042 SCT047 SCT070 29/20 A3000 RMK AO2 T02910202
KERV 252155Z AUTO 15013G17KT 10SM SCT050 32/21 A2998 RMK AO2 T03170206
KERV 252255Z AUTO 14012G21KT 10SM CLR 30/20 A2996 RMK AO2 T03030196
KERV 252355Z AUTO 14013G18KT 10SM CLR 29/20 A2997 RMK AO2 T02910197 10317 20275
KERV 260055Z AUTO 14011KT 10SM SCT043 28/20 A2997 RMK AO2 T02750195
KERV 260155Z AUTO 13007KT 10SM SCT036 26/20 A2999 RMK AO2 T02610200
KERV 260255Z AUTO 15012G16KT 10SM SCT030 25/20 A3001 RMK AO2 T02470202
KERV 260355Z AUTO 14016G22KT 10SM SCT024 25/21 A3002 RMK AO2 T02470206
KERV 260455Z AUTO 15015KT 10SM BKN022 23/20 A3004 RMK AO2 T02330200
KERV 260555Z AUTO 15012G19KT 10SM BKN020 OVC026 23/19 A3004 RMK AO2 T02260193 10291 20226 403170226
KERV 260655Z AUTO 15014G18KT 10SM BKN018 OVC026 22/19 A3002 RMK AO2 T02200190
KERV 260755Z AUTO 15011G18KT 10SM BKN016 OVC027 22/19 A3002 RMK AO2 T02200192